createdAt,value
2018-09-12T00:02:27.257Z,20.70
2018-09-12T00:04:55.763Z,20.70
2018-09-12T00:07:24.216Z,20.70
2018-09-12T00:09:52.683Z,20.70
2018-09-12T00:12:21.191Z,20.70
2018-09-12T00:14:49.676Z,20.70
2018-09-12T00:17:18.131Z,20.70
2018-09-12T00:19:46.558Z,20.70
2018-09-12T00:22:15.149Z,20.70
2018-09-12T00:24:43.753Z,20.60
2018-09-12T00:27:12.251Z,20.70
2018-09-12T00:29:40.721Z,20.60
2018-09-12T00:32:09.331Z,20.60
2018-09-12T00:34:37.745Z,20.60
2018-09-12T00:37:09.563Z,20.60
2018-09-12T00:39:38.111Z,20.60
2018-09-12T00:42:06.579Z,20.60
2018-09-12T00:44:35.119Z,20.60
2018-09-12T00:47:03.677Z,20.60
2018-09-12T00:49:32.133Z,20.60
2018-09-12T00:52:00.589Z,20.60
2018-09-12T00:54:29.111Z,20.60
2018-09-12T00:56:57.604Z,20.60
2018-09-12T00:59:26.246Z,20.60
2018-09-12T01:01:54.818Z,20.60
2018-09-12T01:04:23.968Z,20.60
2018-09-12T01:06:52.499Z,20.50
2018-09-12T01:09:21.009Z,20.50
2018-09-12T01:11:49.498Z,20.50
2018-09-12T01:14:20.283Z,20.50
2018-09-12T01:16:53.047Z,20.50
2018-09-12T01:19:21.490Z,20.50
2018-09-12T01:21:49.937Z,20.50
2018-09-12T01:24:18.348Z,20.50
2018-09-12T01:26:46.864Z,20.50
2018-09-12T01:29:15.345Z,20.50
2018-09-12T01:31:43.953Z,20.50
2018-09-12T01:34:12.575Z,20.50
2018-09-12T01:36:41.402Z,20.50
2018-09-12T01:39:10.845Z,20.40
2018-09-12T01:41:39.389Z,20.40
2018-09-12T01:44:07.933Z,20.40
2018-09-12T01:46:36.445Z,20.40
2018-09-12T01:49:04.864Z,20.40
2018-09-12T01:51:33.513Z,20.50
2018-09-12T01:54:01.938Z,20.40
2018-09-12T01:56:30.419Z,20.40
2018-09-12T01:58:58.871Z,20.40
2018-09-12T02:01:27.409Z,20.40
2018-09-12T02:03:55.946Z,20.40
2018-09-12T02:06:24.981Z,20.40
2018-09-12T02:08:53.441Z,20.40
2018-09-12T02:11:22.385Z,20.50
2018-09-12T02:13:51.316Z,20.40
2018-09-12T02:16:19.738Z,20.40
2018-09-12T02:18:48.317Z,20.40
2018-09-12T02:21:17.325Z,20.50
2018-09-12T02:23:45.863Z,20.50
2018-09-12T02:26:14.861Z,20.50
2018-09-12T02:28:43.345Z,20.50
2018-09-12T02:31:11.864Z,20.50
2018-09-12T02:33:40.421Z,20.50
2018-09-12T02:36:14.165Z,20.40
2018-09-12T02:38:42.741Z,20.50
2018-09-12T02:41:11.170Z,20.40
2018-09-12T02:43:39.620Z,20.40
2018-09-12T02:46:08.074Z,20.40
2018-09-12T02:48:36.553Z,20.40
2018-09-12T02:51:05.043Z,20.40
2018-09-12T02:53:33.580Z,20.50
2018-09-12T02:56:02.042Z,20.50
2018-09-12T02:58:30.555Z,20.50
2018-09-12T03:00:59.014Z,20.50
2018-09-12T03:03:27.546Z,20.50
2018-09-12T03:05:56.084Z,20.50
2018-09-12T03:08:24.620Z,20.50
2018-09-12T03:10:53.716Z,20.50
2018-09-12T03:13:22.180Z,20.50
2018-09-12T03:15:50.627Z,20.40
2018-09-12T03:18:19.816Z,20.40
2018-09-12T03:20:48.470Z,20.40
2018-09-12T03:23:16.765Z,20.50
2018-09-12T03:25:45.296Z,20.40
2018-09-12T03:28:13.788Z,20.40
2018-09-12T03:30:42.820Z,20.40
2018-09-12T03:33:11.436Z,20.40
2018-09-12T03:35:40.538Z,20.40
2018-09-12T03:38:09.965Z,20.40
2018-09-12T03:40:38.462Z,20.40
2018-09-12T03:43:06.908Z,20.40
2018-09-12T03:45:35.444Z,20.40
2018-09-12T03:48:04.086Z,20.40
2018-09-12T03:50:32.483Z,20.40
2018-09-12T03:53:00.953Z,20.40
2018-09-12T03:55:29.465Z,20.40
2018-09-12T03:57:57.886Z,20.40
2018-09-12T04:00:26.347Z,20.40
2018-09-12T04:02:54.845Z,20.40
2018-09-12T04:05:23.361Z,20.40
2018-09-12T04:07:51.838Z,20.40
2018-09-12T04:10:20.259Z,20.40
2018-09-12T04:12:48.790Z,20.40
2018-09-12T04:15:18.162Z,20.40
2018-09-12T04:17:46.671Z,20.40
2018-09-12T04:20:15.148Z,20.40
2018-09-12T04:22:44.276Z,20.40
2018-09-12T04:25:12.681Z,20.40
2018-09-12T04:27:41.150Z,20.40
2018-09-12T04:30:09.747Z,20.40
2018-09-12T04:32:38.328Z,20.40
2018-09-12T04:35:06.733Z,20.40
2018-09-12T04:37:35.176Z,20.40
2018-09-12T04:40:03.716Z,20.40
2018-09-12T04:42:32.201Z,20.50
2018-09-12T04:45:02.343Z,20.50
2018-09-12T04:47:30.905Z,20.50
2018-09-12T04:49:59.408Z,20.50
2018-09-12T04:52:27.856Z,20.50
2018-09-12T04:54:56.334Z,20.50
2018-09-12T04:57:24.861Z,20.50
2018-09-12T04:59:53.291Z,20.50
2018-09-12T05:02:22.010Z,20.50
2018-09-12T05:04:50.563Z,20.50
2018-09-12T05:07:19.012Z,20.50
2018-09-12T05:09:47.558Z,20.40
2018-09-12T05:12:16.023Z,20.50
2018-09-12T05:14:44.506Z,20.40
2018-09-12T05:17:12.932Z,20.40
2018-09-12T05:19:41.376Z,20.40
2018-09-12T05:22:09.861Z,20.40
2018-09-12T05:24:38.290Z,20.30
2018-09-12T05:27:06.866Z,20.20
2018-09-12T05:29:35.892Z,20.10
2018-09-12T05:32:04.486Z,20.10
2018-09-12T05:34:32.929Z,20.00
2018-09-12T05:37:01.536Z,19.90
2018-09-12T05:39:30.214Z,19.90
2018-09-12T05:41:58.919Z,19.90
2018-09-12T05:44:27.499Z,19.90
2018-09-12T05:46:56.017Z,19.90
2018-09-12T05:49:24.547Z,19.80
2018-09-12T05:51:53.092Z,19.80
2018-09-12T05:54:21.589Z,19.80
2018-09-12T05:56:50.050Z,19.80
2018-09-12T05:59:18.460Z,19.70
2018-09-12T06:01:46.888Z,19.70
2018-09-12T06:04:15.487Z,19.60
2018-09-12T06:06:44.071Z,19.60
2018-09-12T06:09:12.564Z,19.60
2018-09-12T06:11:41.105Z,19.60
2018-09-12T06:14:09.639Z,19.70
2018-09-12T06:16:38.140Z,19.60
2018-09-12T06:19:06.655Z,19.60
2018-09-12T06:21:35.508Z,19.60
2018-09-12T06:24:03.990Z,19.50
2018-09-12T06:26:32.578Z,19.50
2018-09-12T06:29:01.160Z,19.40
2018-09-12T06:31:29.721Z,19.30
2018-09-12T06:33:58.330Z,19.20
2018-09-12T06:36:30.289Z,19.20
2018-09-12T06:38:58.805Z,19.20
2018-09-12T06:41:27.383Z,19.10
2018-09-12T06:43:55.853Z,19.00
2018-09-12T06:46:24.315Z,19.00
2018-09-12T06:48:52.805Z,19.00
2018-09-12T06:51:21.287Z,18.90
2018-09-12T06:53:49.902Z,18.80
2018-09-12T06:56:18.410Z,18.80
2018-09-12T06:58:46.985Z,18.70
2018-09-12T07:01:15.557Z,18.70
2018-09-12T07:03:44.018Z,18.70
2018-09-12T07:06:12.516Z,18.70
2018-09-12T07:08:41.027Z,18.70
2018-09-12T07:11:09.577Z,18.70
2018-09-12T07:13:38.644Z,18.70
2018-09-12T07:16:07.285Z,18.70
2018-09-12T07:18:35.966Z,18.70
2018-09-12T07:21:04.801Z,18.70
2018-09-12T07:23:33.323Z,18.70
2018-09-12T07:26:01.855Z,18.70
2018-09-12T07:28:30.645Z,18.70
2018-09-12T07:30:59.448Z,18.80
2018-09-12T07:33:28.820Z,18.70
2018-09-12T07:35:57.381Z,18.70
2018-09-12T07:38:26.520Z,18.60
2018-09-12T07:40:55.742Z,18.60
2018-09-12T07:43:24.366Z,18.60
2018-09-12T07:45:53.028Z,18.60
2018-09-12T07:48:22.045Z,18.60
2018-09-12T07:50:50.685Z,18.60
2018-09-12T07:53:19.751Z,18.60
2018-09-12T07:55:48.211Z,18.50
2018-09-12T07:58:16.706Z,18.50
2018-09-12T08:00:45.150Z,18.50
2018-09-12T08:03:13.946Z,18.50
2018-09-12T08:05:42.478Z,18.50
2018-09-12T08:08:11.077Z,18.40
2018-09-12T08:10:39.706Z,18.40
2018-09-12T08:13:08.261Z,18.20
2018-09-12T08:15:36.904Z,18.20
2018-09-12T08:18:05.850Z,18.20
2018-09-12T08:20:34.337Z,18.20
2018-09-12T08:23:02.879Z,18.20
2018-09-12T08:25:31.893Z,18.20
2018-09-12T08:28:00.504Z,18.20
2018-09-12T08:30:31.732Z,18.30
2018-09-12T08:33:00.381Z,18.30
2018-09-12T08:35:28.856Z,18.30
2018-09-12T08:37:57.476Z,18.20
2018-09-12T08:40:28.127Z,18.30
2018-09-12T08:42:57.242Z,18.50
2018-09-12T08:45:25.822Z,18.50
2018-09-12T08:47:54.533Z,18.60
2018-09-12T08:50:24.507Z,18.80
2018-09-12T08:52:54.355Z,18.90
2018-09-12T08:55:22.805Z,19.00
2018-09-12T08:57:51.305Z,19.10
2018-09-12T09:00:19.974Z,19.10
2018-09-12T09:02:48.627Z,19.10
2018-09-12T09:05:17.173Z,19.10
2018-09-12T09:07:45.708Z,19.10
2018-09-12T09:10:14.294Z,19.20
2018-09-12T09:12:42.791Z,19.30
2018-09-12T09:15:11.249Z,19.30
2018-09-12T09:17:39.784Z,19.50
2018-09-12T09:20:08.247Z,19.60
2018-09-12T09:22:36.863Z,19.90
2018-09-12T09:25:05.378Z,20.30
2018-09-12T09:27:34.182Z,20.60
2018-09-12T09:30:02.710Z,21.10
2018-09-12T09:32:31.305Z,21.30
2018-09-12T09:35:00.093Z,21.30
2018-09-12T09:37:28.493Z,21.40
2018-09-12T09:39:57.089Z,21.30
2018-09-12T09:42:25.655Z,21.20
2018-09-12T09:44:54.254Z,21.10
2018-09-12T09:47:22.785Z,21.00
2018-09-12T09:49:55.650Z,20.80
2018-09-12T09:52:25.060Z,20.70
2018-09-12T09:54:53.775Z,20.70
2018-09-12T09:57:22.769Z,20.60
2018-09-12T09:59:52.045Z,20.50
2018-09-12T10:04:26.904Z,20.50
2018-09-12T10:06:58.368Z,20.50
2018-09-12T10:09:30.636Z,20.50
2018-09-12T10:12:02.970Z,20.40
2018-09-12T10:14:31.831Z,20.40
2018-09-12T10:17:00.339Z,20.30
2018-09-12T10:19:28.821Z,20.40
2018-09-12T10:21:57.426Z,20.40
2018-09-12T10:24:25.966Z,20.40
2018-09-12T10:26:54.373Z,20.30
2018-09-12T10:29:22.807Z,20.30
2018-09-12T10:31:51.249Z,20.20
2018-09-12T10:34:20.062Z,20.20
2018-09-12T10:36:48.585Z,20.40
2018-09-12T10:39:17.243Z,20.60
2018-09-12T10:41:45.768Z,20.70
2018-09-12T10:44:14.265Z,20.80
2018-09-12T10:46:42.716Z,20.70
2018-09-12T10:49:11.169Z,20.70
2018-09-12T10:51:39.737Z,20.60
2018-09-12T10:54:08.426Z,20.40
2018-09-12T10:56:36.869Z,20.30
2018-09-12T10:59:05.351Z,20.10
2018-09-12T11:01:33.901Z,20.20
2018-09-12T11:04:02.339Z,20.20
2018-09-12T11:06:30.934Z,20.20
2018-09-12T11:08:59.373Z,20.30
2018-09-12T11:11:27.876Z,20.50
2018-09-12T11:13:57.015Z,20.60
2018-09-12T11:16:25.462Z,20.80
2018-09-12T11:18:54.279Z,20.90
2018-09-12T11:21:23.480Z,21.00
2018-09-12T11:23:52.346Z,20.90
2018-09-12T11:26:20.984Z,20.80
2018-09-12T11:28:49.570Z,20.80
2018-09-12T11:31:18.041Z,20.70
2018-09-12T11:33:46.700Z,20.70
2018-09-12T11:36:15.221Z,20.60
2018-09-12T11:38:43.866Z,20.50
2018-09-12T11:41:12.416Z,20.50
2018-09-12T11:43:41.816Z,20.30
2018-09-12T11:46:10.239Z,20.20
2018-09-12T11:48:38.930Z,20.30
2018-09-12T11:51:07.413Z,20.40
2018-09-12T11:53:37.057Z,20.40
2018-09-12T11:56:05.761Z,20.40
2018-09-12T11:58:34.521Z,20.50
2018-09-12T12:01:03.318Z,20.50
2018-09-12T12:03:31.878Z,20.30
2018-09-12T12:06:00.727Z,20.30
2018-09-12T12:08:29.357Z,20.40
2018-09-12T12:10:58.349Z,20.50
2018-09-12T12:13:26.966Z,20.70
2018-09-12T12:15:55.673Z,20.80
2018-09-12T12:18:24.223Z,20.80
2018-09-12T12:20:52.827Z,20.80
2018-09-12T12:23:21.593Z,20.90
2018-09-12T12:25:50.147Z,20.80
2018-09-12T12:28:18.891Z,20.80
2018-09-12T12:30:47.614Z,20.70
2018-09-12T12:33:16.341Z,20.70
2018-09-12T12:35:45.018Z,20.70
2018-09-12T12:38:13.794Z,20.60
2018-09-12T12:40:42.416Z,20.60
2018-09-12T12:43:11.279Z,20.50
2018-09-12T12:45:39.915Z,20.40
2018-09-12T12:48:09.027Z,20.30
2018-09-12T12:50:38.065Z,20.20
2018-09-12T12:53:06.856Z,20.30
2018-09-12T12:55:35.343Z,20.40
2018-09-12T12:58:03.995Z,20.50
2018-09-12T13:00:32.489Z,20.70
2018-09-12T13:03:00.990Z,20.70
2018-09-12T13:05:30.084Z,20.70
2018-09-12T13:07:58.611Z,20.60
2018-09-12T13:10:27.507Z,20.60
2018-09-12T13:12:56.206Z,20.60
2018-09-12T13:15:24.702Z,20.60
2018-09-12T13:17:53.614Z,20.60
2018-09-12T13:20:22.169Z,20.50
2018-09-12T13:22:50.721Z,20.50
2018-09-12T13:25:19.235Z,20.50
2018-09-12T13:27:47.760Z,20.50
2018-09-12T13:30:16.259Z,20.60
2018-09-12T13:32:45.323Z,20.60
2018-09-12T13:35:13.906Z,20.50
2018-09-12T13:37:42.386Z,20.40
2018-09-12T13:40:11.211Z,20.30
2018-09-12T13:42:40.547Z,20.10
2018-09-12T13:45:09.097Z,20.10
2018-09-12T13:47:37.605Z,20.00
2018-09-12T13:50:06.434Z,20.00
2018-09-12T13:52:34.953Z,20.00
2018-09-12T13:55:03.428Z,20.00
2018-09-12T13:57:32.017Z,20.00
2018-09-12T14:00:00.584Z,20.20
2018-09-12T14:02:29.119Z,20.20
2018-09-12T14:04:57.638Z,20.30
2018-09-12T14:07:26.283Z,20.30
2018-09-12T14:09:54.932Z,20.30
2018-09-12T14:12:23.393Z,20.30
2018-09-12T14:14:51.903Z,20.30
2018-09-12T14:17:20.569Z,20.30
2018-09-12T14:19:49.103Z,20.30
2018-09-12T14:22:18.049Z,20.20
2018-09-12T14:24:46.849Z,20.20
2018-09-12T14:27:15.453Z,20.10
2018-09-12T14:29:43.972Z,20.10
2018-09-12T14:32:12.601Z,20.10
2018-09-12T14:34:41.259Z,20.10
2018-09-12T14:37:09.741Z,20.10
2018-09-12T14:39:38.291Z,20.10
2018-09-12T14:42:06.971Z,20.00
2018-09-12T14:44:35.786Z,19.90
2018-09-12T14:47:04.326Z,19.90
2018-09-12T14:49:32.984Z,19.90
2018-09-12T14:52:01.527Z,19.90
2018-09-12T14:54:29.986Z,20.00
2018-09-12T14:56:58.516Z,20.00
2018-09-12T14:59:27.146Z,20.10
2018-09-12T15:01:55.640Z,20.10
2018-09-12T15:04:24.269Z,20.00
2018-09-12T15:06:52.849Z,19.90
2018-09-12T15:09:21.461Z,19.90
2018-09-12T15:11:50.011Z,19.90
2018-09-12T15:14:18.561Z,19.90
2018-09-12T15:16:47.117Z,19.80
2018-09-12T15:19:16.148Z,19.80
2018-09-12T15:21:44.690Z,19.80
2018-09-12T15:24:13.274Z,19.70
2018-09-12T15:26:42.014Z,19.70
2018-09-12T15:29:10.634Z,19.50
2018-09-12T15:31:39.246Z,19.50
2018-09-12T15:34:07.961Z,19.50
2018-09-12T15:36:37.415Z,19.40
2018-09-12T15:39:08.087Z,19.40
2018-09-12T15:41:36.683Z,19.30
2018-09-12T15:44:05.198Z,19.30
2018-09-12T15:46:33.728Z,19.30
2018-09-12T15:49:02.228Z,19.20
2018-09-12T15:51:30.697Z,19.20
2018-09-12T15:53:59.225Z,19.20
2018-09-12T15:56:27.697Z,19.10
2018-09-12T15:58:56.177Z,19.10
2018-09-12T16:01:24.654Z,19.00
2018-09-12T16:03:53.173Z,19.00
2018-09-12T16:06:21.819Z,19.00
2018-09-12T16:08:50.350Z,18.90
2018-09-12T16:11:18.834Z,18.90
2018-09-12T16:13:47.566Z,18.90
2018-09-12T16:16:16.049Z,18.90
2018-09-12T16:18:44.671Z,18.90
2018-09-12T16:21:13.255Z,18.90
2018-09-12T16:23:41.751Z,18.90
2018-09-12T16:26:10.385Z,18.80
2018-09-12T16:28:38.851Z,18.80
2018-09-12T16:31:07.858Z,18.80
2018-09-12T16:33:36.388Z,18.70
2018-09-12T16:36:04.851Z,18.70
2018-09-12T16:38:33.348Z,18.70
2018-09-12T16:41:01.881Z,18.70
2018-09-12T16:43:30.418Z,18.70
2018-09-12T16:45:59.004Z,18.70
2018-09-12T16:48:27.583Z,18.60
2018-09-12T16:50:56.203Z,18.60
2018-09-12T16:53:24.682Z,18.60
2018-09-12T16:55:53.175Z,18.60
2018-09-12T16:58:21.776Z,18.60
2018-09-12T17:00:50.263Z,18.50
2018-09-12T17:03:18.778Z,18.50
2018-09-12T17:05:47.261Z,18.50
2018-09-12T17:08:15.713Z,18.50
2018-09-12T17:10:44.148Z,18.50
2018-09-12T17:13:12.626Z,18.40
2018-09-12T17:15:41.309Z,18.40
2018-09-12T17:18:09.876Z,18.40
2018-09-12T17:20:38.573Z,18.40
2018-09-12T17:23:07.037Z,18.30
2018-09-12T17:25:35.527Z,18.30
2018-09-12T17:28:04.023Z,18.30
2018-09-12T17:30:32.500Z,18.30
2018-09-12T17:33:01.011Z,18.40
2018-09-12T17:35:30.301Z,18.30
2018-09-12T17:37:59.014Z,18.30
2018-09-12T17:40:27.435Z,18.30
2018-09-12T17:42:55.990Z,18.30
2018-09-12T17:45:24.448Z,18.20
2018-09-12T17:47:53.112Z,18.20
2018-09-12T17:50:21.633Z,18.20
2018-09-12T17:52:50.875Z,18.20
2018-09-12T17:55:19.456Z,18.10
2018-09-12T17:57:47.876Z,17.90
2018-09-12T18:00:16.456Z,17.70
2018-09-12T18:02:45.328Z,17.60
2018-09-12T18:05:13.836Z,17.40
2018-09-12T18:07:42.518Z,17.40
2018-09-12T18:10:11.168Z,17.30
2018-09-12T18:12:39.658Z,17.20
2018-09-12T18:15:08.144Z,17.20
2018-09-12T18:17:36.876Z,17.20
2018-09-12T18:20:05.327Z,17.20
2018-09-12T18:22:33.894Z,17.20
2018-09-12T18:25:02.424Z,17.10
2018-09-12T18:27:30.918Z,17.10
2018-09-12T18:29:59.448Z,17.10
2018-09-12T18:32:28.201Z,17.00
2018-09-12T18:34:56.753Z,17.00
2018-09-12T18:37:25.325Z,17.00
2018-09-12T18:39:53.919Z,17.00
2018-09-12T18:42:22.448Z,17.00
2018-09-12T18:44:51.801Z,16.90
2018-09-12T18:47:20.734Z,16.90
2018-09-12T18:49:50.180Z,17.00
2018-09-12T18:52:19.099Z,16.90
2018-09-12T18:54:47.781Z,16.90
2018-09-12T18:57:16.465Z,16.90
2018-09-12T18:59:45.172Z,16.90
2018-09-12T19:02:13.912Z,16.90
2018-09-12T19:04:42.526Z,16.80
2018-09-12T19:07:11.483Z,16.90
2018-09-12T19:09:40.080Z,16.80
2018-09-12T19:12:08.585Z,16.80
2018-09-12T19:14:37.094Z,16.80
2018-09-12T19:17:05.708Z,16.80
2018-09-12T19:19:34.387Z,16.80
2018-09-12T19:22:03.157Z,16.80
2018-09-12T19:24:31.849Z,16.80
2018-09-12T19:27:00.508Z,16.70
2018-09-12T19:29:29.050Z,16.80
2018-09-12T19:31:57.653Z,16.70
2018-09-12T19:34:26.266Z,16.70
2018-09-12T19:36:54.815Z,16.70
2018-09-12T19:39:24.824Z,16.70
2018-09-12T19:41:53.406Z,16.70
2018-09-12T19:44:22.201Z,16.70
2018-09-12T19:46:50.711Z,16.60
2018-09-12T19:49:19.277Z,16.60
2018-09-12T19:51:48.491Z,16.60
2018-09-12T19:54:17.008Z,16.60
2018-09-12T19:56:47.037Z,16.60
2018-09-12T19:59:15.544Z,16.60
2018-09-12T20:01:44.161Z,16.60
2018-09-12T20:04:12.608Z,16.60
2018-09-12T20:06:41.421Z,16.60
2018-09-12T20:09:11.402Z,16.60
2018-09-12T20:11:40.008Z,16.50
2018-09-12T20:14:08.644Z,16.50
2018-09-12T20:16:37.204Z,16.50
2018-09-12T20:19:05.854Z,16.50
2018-09-12T20:21:35.028Z,16.50
2018-09-12T20:24:04.003Z,16.50
2018-09-12T20:26:32.404Z,16.40
2018-09-12T20:29:00.957Z,16.40
2018-09-12T20:31:29.533Z,16.40
2018-09-12T20:33:58.073Z,16.40
2018-09-12T20:36:26.549Z,16.40
2018-09-12T20:38:55.214Z,16.40
2018-09-12T20:41:23.785Z,16.40
2018-09-12T20:43:52.300Z,16.40
2018-09-12T20:46:20.894Z,16.40
2018-09-12T20:48:49.523Z,16.40
2018-09-12T20:51:17.994Z,16.40
2018-09-12T20:53:47.418Z,16.30
2018-09-12T20:56:15.986Z,16.40
2018-09-12T20:58:45.777Z,16.40
2018-09-12T21:01:14.721Z,16.30
2018-09-12T21:03:43.651Z,16.40
2018-09-12T21:06:12.596Z,16.30
2018-09-12T21:08:41.497Z,16.30
2018-09-12T21:11:10.019Z,16.30
2018-09-12T21:13:38.811Z,16.30
2018-09-12T21:16:08.105Z,16.30
2018-09-12T21:18:37.575Z,16.30
2018-09-12T21:21:06.659Z,16.30
2018-09-12T21:23:35.225Z,16.20
2018-09-12T21:26:04.063Z,16.20
2018-09-12T21:28:32.608Z,16.20
2018-09-12T21:31:01.176Z,16.20
2018-09-12T21:33:29.982Z,16.10
2018-09-12T21:35:58.745Z,16.10
2018-09-12T21:38:27.635Z,16.10
2018-09-12T21:40:57.006Z,16.10
2018-09-12T21:43:27.565Z,16.10
2018-09-12T21:45:57.050Z,16.10
2018-09-12T21:48:27.573Z,16.10
2018-09-12T21:50:56.553Z,16.00
2018-09-12T21:53:25.203Z,16.00
2018-09-12T21:55:53.964Z,16.10
2018-09-12T21:58:22.550Z,16.00
2018-09-12T22:00:51.914Z,16.00
2018-09-12T22:03:20.413Z,16.00
2018-09-12T22:05:48.923Z,16.00
2018-09-12T22:08:17.503Z,16.00
2018-09-12T22:10:46.075Z,16.00
2018-09-12T22:13:14.579Z,16.00
2018-09-12T22:15:43.212Z,16.00
2018-09-12T22:18:11.716Z,16.00
2018-09-12T22:20:40.684Z,16.00
2018-09-12T22:23:09.309Z,16.00
2018-09-12T22:25:37.772Z,16.00
2018-09-12T22:28:06.379Z,16.00
2018-09-12T22:30:34.830Z,16.00
2018-09-12T22:33:03.405Z,16.00
2018-09-12T22:35:31.934Z,16.00
2018-09-12T22:38:00.570Z,16.00
2018-09-12T22:40:29.146Z,16.00
2018-09-12T22:42:57.826Z,16.00
2018-09-12T22:45:26.316Z,16.00
2018-09-12T22:47:54.801Z,16.00
2018-09-12T22:50:23.285Z,16.00
2018-09-12T22:52:51.765Z,15.90
2018-09-12T22:55:20.400Z,15.90
2018-09-12T22:57:48.945Z,15.90
2018-09-12T23:00:17.484Z,15.90
2018-09-12T23:02:46.046Z,15.90
2018-09-12T23:05:14.577Z,15.80
2018-09-12T23:07:43.122Z,15.80
2018-09-12T23:10:11.654Z,15.80
2018-09-12T23:12:40.204Z,15.80
2018-09-12T23:15:08.814Z,15.80
2018-09-12T23:17:37.880Z,15.80
2018-09-12T23:20:06.779Z,15.80
2018-09-12T23:22:35.318Z,15.80
2018-09-12T23:25:03.880Z,15.80
2018-09-12T23:27:32.402Z,15.80
2018-09-12T23:30:00.932Z,15.80
2018-09-12T23:32:29.479Z,15.80
2018-09-12T23:34:57.984Z,15.80
2018-09-12T23:37:26.564Z,15.80
2018-09-12T23:39:55.070Z,15.80
2018-09-12T23:42:23.522Z,15.80
2018-09-12T23:44:52.065Z,15.70
2018-09-12T23:47:20.526Z,15.70
2018-09-12T23:49:49.031Z,15.60
2018-09-12T23:52:17.536Z,15.60
2018-09-12T23:54:46.157Z,15.60
2018-09-12T23:57:14.621Z,15.50
2018-09-12T23:59:43.113Z,15.50
